Time;durP1;ratioP1;P1;durP2;ratioP2;P2;SDS_P1;SDS_P2;PMS_P1;PMS_P2;Temp;Humidity;BMP_temperature;BMP_pressure;BME280_temperature;BME280_humidity;BME280_pressure;Samples;Min_cycle;Max_cycle;Signal;HPM_P1;HPM_P2
2021/06/14 00:00:23;;;;;;;13.25;6.05;;;;;;;14.43;74.79;100943.94;5063793;28;20059;-70
2021/06/14 00:02:49;;;;;;;14.65;7.65;;;;;;;14.41;74.86;100935.28;5064002;28;20031;-70
2021/06/14 00:05:19;;;;;;;12.73;6.40;;;;;;;14.47;74.54;100950.88;5045816;28;20028;-70
2021/06/14 00:07:44;;;;;;;16.38;6.72;;;;;;;14.47;74.61;100935.19;5063776;28;20025;-70
2021/06/14 00:10:11;;;;;;;14.40;5.63;;;;;;;14.45;74.80;100924.75;5045749;28;20094;-71
2021/06/14 00:12:36;;;;;;;20.33;6.28;;;;;;;14.49;74.53;100938.63;5063660;28;20054;-70
2021/06/14 00:15:04;;;;;;;13.80;5.80;;;;;;;14.52;74.43;100929.88;5063591;28;20108;-70
2021/06/14 00:17:30;;;;;;;14.18;5.65;;;;;;;14.52;74.51;100933.34;5063439;28;20028;-70
2021/06/14 00:19:56;;;;;;;10.45;6.78;;;;;;;14.48;74.67;100926.44;5063495;28;20024;-70
2021/06/14 00:22:22;;;;;;;17.05;6.40;;;;;;;14.46;74.55;100925.59;5063680;28;20029;-70
2021/06/14 00:24:47;;;;;;;12.88;5.60;;;;;;;14.42;74.87;100909.16;5063510;28;20021;-70
2021/06/14 00:27:13;;;;;;;15.38;6.85;;;;;;;14.47;74.77;100925.59;5063727;28;20036;-70
2021/06/14 00:29:38;;;;;;;15.45;5.78;;;;;;;14.46;74.89;100928.22;5063266;28;20045;-70
2021/06/14 00:32:05;;;;;;;26.42;6.43;;;;;;;14.42;75.12;100930.03;5063732;28;20024;-71
2021/06/14 00:34:30;;;;;;;13.50;6.20;;;;;;;14.40;75.21;100920.50;5063302;28;20028;-68
2021/06/14 00:36:56;;;;;;;20.58;6.45;;;;;;;14.37;75.16;100910.97;5063229;28;20021;-70
2021/06/14 00:39:21;;;;;;;16.98;6.97;;;;;;;14.44;75.16;100922.19;5063338;28;20563;-70
2021/06/14 00:41:47;;;;;;;14.05;5.97;;;;;;;14.44;75.03;100916.97;5063236;28;20024;-69
2021/06/14 00:44:13;;;;;;;17.90;6.65;;;;;;;14.40;75.08;100912.66;5045115;28;20463;-69
2021/06/14 00:46:38;;;;;;;12.60;5.30;;;;;;;14.40;75.14;100920.50;5062992;28;20052;-69
2021/06/14 00:49:04;;;;;;;10.45;5.85;;;;;;;14.42;74.89;100921.34;5063127;28;20024;-69
2021/06/14 00:51:29;;;;;;;16.95;5.93;;;;;;;14.34;74.93;100904.06;5063175;28;20028;-69
2021/06/14 00:53:55;;;;;;;15.23;5.57;;;;;;;14.35;75.15;100910.13;5063060;28;20045;-69
2021/06/14 00:56:23;;;;;;;19.73;6.07;;;;;;;14.31;74.94;100909.31;5063246;28;20028;-69
2021/06/14 00:58:49;;;;;;;12.55;5.82;;;;;;;14.37;74.91;100910.97;5062817;28;20017;-69
2021/06/14 01:01:14;;;;;;;11.48;5.45;;;;;;;14.36;74.92;100907.47;5062860;28;20103;-69
2021/06/14 01:03:40;;;;;;;17.00;6.20;;;;;;;14.31;75.20;100904.09;5063316;28;20021;-69
2021/06/14 01:06:08;;;;;;;14.25;5.63;;;;;;;14.31;75.45;100900.63;5062919;28;20028;-69
2021/06/14 01:08:43;;;;;;;16.10;6.22;;;;;;;14.25;75.45;100894.59;5062635;28;20473;-69
2021/06/14 01:11:27;;;;;;;16.13;6.28;;;;;;;14.23;75.81;100900.75;5061755;28;20028;-70
2021/06/14 01:14:00;;;;;;;18.77;6.47;;;;;;;14.17;76.11;100906.06;5063156;28;20104;-69
2021/06/14 01:16:39;;;;;;;11.60;6.38;;;;;;;14.12;76.57;100895.69;5061477;28;20025;-69
2021/06/14 01:19:07;;;;;;;16.27;6.32;;;;;;;14.17;76.24;100901.69;5062994;28;20017;-69
2021/06/14 01:22:06;;;;;;;13.95;6.10;;;;;;;14.15;76.33;100893.03;5062896;28;20517;-70
2021/06/14 01:24:40;;;;;;;11.70;6.32;;;;;;;14.18;76.24;100889.50;5062772;28;20054;-69
2021/06/14 01:27:12;;;;;;;13.82;6.75;;;;;;;14.17;76.13;100890.41;5062274;28;20038;-69
2021/06/14 01:29:40;;;;;;;12.10;5.80;;;;;;;14.17;76.14;100885.19;5061681;28;20075;-69
2021/06/14 01:32:08;;;;;;;21.15;7.30;;;;;;;14.17;76.26;100885.19;5061666;28;20348;-69
2021/06/14 01:34:37;;;;;;;14.07;5.97;;;;;;;14.17;76.18;100878.19;5062009;28;20017;-70
2021/06/14 01:37:05;;;;;;;15.55;6.43;;;;;;;14.16;76.14;100870.38;5062793;28;20105;-69
2021/06/14 01:39:35;;;;;;;14.65;6.28;;;;;;;14.15;76.28;100879.09;5061345;28;20047;-69
2021/06/14 01:42:01;;;;;;;11.93;6.75;;;;;;;14.17;76.38;100877.34;5062764;28;20033;-69
2021/06/14 01:44:30;;;;;;;16.42;7.95;;;;;;;14.16;76.52;100883.44;5062642;28;20025;-69
2021/06/14 01:46:57;;;;;;;13.80;6.45;;;;;;;14.15;76.61;100877.38;5062288;28;20049;-70
2021/06/14 01:49:24;;;;;;;12.18;6.00;;;;;;;14.16;76.47;100872.97;5062497;28;20048;-69
2021/06/14 01:51:50;;;;;;;24.02;7.95;;;;;;;14.13;76.52;100873.91;5062531;28;20031;-69
2021/06/14 01:54:16;;;;;;;12.93;6.13;;;;;;;14.16;76.57;100878.22;5062250;28;20101;-69
2021/06/14 01:56:43;;;;;;;15.05;6.32;;;;;;;14.19;76.43;100883.38;5062802;28;20028;-70
2021/06/14 01:59:13;;;;;;;15.77;6.28;;;;;;;14.17;76.55;100874.72;5060990;28;20116;-69
2021/06/14 02:01:40;;;;;;;12.30;6.78;;;;;;;14.15;76.72;100885.19;5062470;28;20045;-69
2021/06/14 02:04:06;;;;;;;17.70;6.00;;;;;;;14.15;76.64;100879.09;5062583;28;20531;-69
2021/06/14 02:06:36;;;;;;;14.43;5.85;;;;;;;14.12;76.77;100878.25;5062231;28;20033;-69
2021/06/14 02:09:07;;;;;;;10.95;5.32;;;;;;;14.08;76.95;100868.75;5062380;28;20116;-69
2021/06/14 02:11:32;;;;;;;10.70;6.10;;;;;;;14.05;76.95;100866.19;5065126;28;20052;-69
2021/06/14 02:13:59;;;;;;;11.43;7.13;;;;;;;14.06;77.01;100873.13;5066147;28;20044;-69
2021/06/14 02:16:27;;;;;;;18.88;6.63;;;;;;;14.06;77.08;100867.03;5066039;28;20047;-69
2021/06/14 02:18:52;;;;;;;14.90;6.53;;;;;;;14.08;76.77;100881.81;5065862;28;20025;-69
2021/06/14 02:21:19;;;;;;;13.23;6.32;;;;;;;14.11;76.70;100873.94;5065926;28;20021;-69
2021/06/14 02:23:45;;;;;;;20.63;7.57;;;;;;;14.12;76.60;100872.19;5066171;28;20051;-69
2021/06/14 02:26:10;;;;;;;10.98;5.75;;;;;;;14.13;76.62;100877.38;5065827;28;20025;-69
2021/06/14 02:28:36;;;;;;;18.85;7.38;;;;;;;14.17;76.63;100885.19;5065946;28;20033;-69
2021/06/14 02:31:01;;;;;;;12.75;5.72;;;;;;;14.15;76.58;100876.50;5065910;28;20021;-70
2021/06/14 02:33:27;;;;;;;14.35;6.63;;;;;;;14.15;76.70;100877.38;5065871;28;20047;-69
2021/06/14 02:35:52;;;;;;;9.77;5.43;;;;;;;14.13;76.52;100873.91;5065598;28;20223;-70
2021/06/14 02:38:19;;;;;;;11.98;6.45;;;;;;;14.08;77.17;100871.38;5064454;28;20488;-70
2021/06/14 02:40:44;;;;;;;11.15;6.20;;;;;;;14.07;76.85;100869.66;5065759;28;20031;-69
2021/06/14 02:43:10;;;;;;;11.73;6.70;;;;;;;14.06;77.04;100862.69;5064114;28;20111;-70
2021/06/14 02:45:37;;;;;;;15.00;7.15;;;;;;;14.03;77.05;100854.03;5065287;28;20021;-70
2021/06/14 02:48:05;;;;;;;11.10;7.25;;;;;;;14.06;77.18;100862.69;5047419;28;20048;-70
2021/06/14 02:50:33;;;;;;;12.93;7.60;;;;;;;14.11;76.85;100860.88;5065334;28;20115;-69
2021/06/14 02:53:01;;;;;;;12.88;7.00;;;;;;;14.08;76.96;100863.53;5065157;28;20025;-71
2021/06/14 02:55:33;;;;;;;18.27;8.07;;;;;;;14.08;77.03;100860.06;5047441;28;20017;-70
2021/06/14 02:57:59;;;;;;;13.85;7.88;;;;;;;14.11;77.03;100863.50;5065528;28;20082;-69
2021/06/14 03:00:28;;;;;;;9.57;6.70;;;;;;;14.14;77.08;100857.34;5065123;28;20032;-68
2021/06/14 03:02:59;;;;;;;16.45;6.90;;;;;;;14.16;77.18;100849.47;5065310;28;20137;-68
2021/06/14 03:05:26;;;;;;;16.70;6.85;;;;;;;14.13;77.27;100848.66;5065049;28;20695;-69
2021/06/14 03:07:53;;;;;;;14.05;6.85;;;;;;;14.12;77.51;100852.16;5065094;28;20128;-69
2021/06/14 03:10:19;;;;;;;14.93;6.47;;;;;;;14.12;77.54;100852.16;5065028;28;20056;-69
2021/06/14 03:12:44;;;;;;;12.98;6.20;;;;;;;14.13;77.56;100850.41;5047280;28;20029;-69
2021/06/14 03:15:10;;;;;;;9.82;6.38;;;;;;;14.20;77.16;100851.19;5064888;28;20036;-69
2021/06/14 03:17:37;;;;;;;12.65;6.30;;;;;;;14.22;77.20;100847.66;5064993;28;20098;-68
2021/06/14 03:20:05;;;;;;;13.35;5.93;;;;;;;14.18;77.18;100847.72;5064873;28;20100;-68
2021/06/14 03:22:30;;;;;;;8.65;6.18;;;;;;;14.19;77.34;100852.91;5063622;28;20032;-69
2021/06/14 03:24:55;;;;;;;16.38;7.15;;;;;;;14.23;77.30;100853.75;5064688;28;20462;-68
2021/06/14 03:27:22;;;;;;;16.88;5.55;;;;;;;14.24;77.02;100853.72;5064355;28;20512;-69
2021/06/14 03:29:50;;;;;;;12.23;5.75;;;;;;;14.28;77.14;100853.66;5063652;28;20017;-69
2021/06/14 03:32:16;;;;;;;16.25;6.97;;;;;;;14.27;77.00;100850.19;5063355;28;20028;-69
2021/06/14 03:34:42;;;;;;;10.95;6.00;;;;;;;14.27;77.01;100854.53;5064387;28;20442;-69
2021/06/14 03:37:08;;;;;;;9.77;6.30;;;;;;;14.28;76.88;100859.72;5064426;28;20021;-69
2021/06/14 03:39:34;;;;;;;10.75;6.15;;;;;;;14.28;76.87;100862.34;5064368;28;20063;-69
2021/06/14 03:41:59;;;;;;;9.45;6.50;;;;;;;14.31;76.86;100856.22;5064282;28;20085;-69
2021/06/14 03:44:25;;;;;;;16.55;6.60;;;;;;;14.29;77.07;100858.84;5064197;28;20032;-69
2021/06/14 03:46:51;;;;;;;9.35;5.70;;;;;;;14.29;76.87;100852.75;5046207;28;20028;-70
2021/06/14 03:49:18;;;;;;;10.27;6.00;;;;;;;14.20;77.09;100838.97;5064667;28;20031;-70
2021/06/14 03:51:44;;;;;;;11.68;6.97;;;;;;;14.21;77.33;100842.44;5064780;28;20032;-70
2021/06/14 03:54:09;;;;;;;13.88;6.75;;;;;;;14.19;77.21;100833.78;5043235;28;20053;-69
2021/06/14 03:56:36;;;;;;;11.52;6.72;;;;;;;14.20;77.46;100838.13;5044638;28;20018;-70
2021/06/14 03:59:03;;;;;;;13.32;6.07;;;;;;;14.21;77.55;100832.00;5044640;28;20032;-70
2021/06/14 04:01:28;;;;;;;11.60;6.53;;;;;;;14.22;77.45;100828.50;5044383;28;20029;-68
2021/06/14 04:06:23;;;;;;;10.80;6.78;;;;;;;14.24;77.68;100831.94;5044166;28;20111;-68
2021/06/14 04:08:49;;;;;;;10.93;6.85;;;;;;;14.25;77.32;100834.53;5044269;28;20381;-68
2021/06/14 04:11:14;;;;;;;11.95;6.43;;;;;;;14.28;77.47;100836.22;5044253;28;20458;-69
2021/06/14 04:13:40;;;;;;;11.98;6.20;;;;;;;14.28;77.38;100820.56;5044274;28;20021;-69
2021/06/14 04:16:05;;;;;;;11.77;6.63;;;;;;;14.32;77.17;100819.63;5044070;28;20013;-69
2021/06/14 04:18:30;;;;;;;14.52;7.13;;;;;;;14.38;77.41;100829.97;5059380;28;20084;-68
2021/06/14 04:20:56;;;;;;;12.75;6.28;;;;;;;14.41;77.13;100839.50;5043888;28;20032;-70
2021/06/14 04:23:21;;;;;;;13.85;6.75;;;;;;;14.45;77.10;100835.09;5044111;28;20327;-69
2021/06/14 04:25:46;;;;;;;10.57;6.65;;;;;;;14.38;77.18;100816.03;5043893;28;20026;-69
2021/06/14 04:28:12;;;;;;;11.40;6.55;;;;;;;14.46;77.20;100844.63;5044194;28;20086;-67
2021/06/14 04:30:37;;;;;;;9.88;6.20;;;;;;;14.51;77.18;100840.19;5043689;28;20036;-68
2021/06/14 04:33:03;;;;;;;8.90;5.05;;;;;;;14.57;76.90;100831.41;5043436;28;20096;-69
2021/06/14 04:35:29;;;;;;;9.48;5.85;;;;;;;14.61;77.15;100835.66;5043655;28;20044;-67
2021/06/14 04:37:54;;;;;;;9.68;5.72;;;;;;;14.60;77.01;100828.72;5042293;28;20017;-68
2021/06/14 04:40:19;;;;;;;8.27;4.90;;;;;;;14.62;76.78;100819.97;5043482;28;20081;-68
2021/06/14 04:42:45;;;;;;;12.13;4.80;;;;;;;14.60;76.82;100805.22;5043819;28;20027;-67
2021/06/14 04:45:12;;;;;;;8.45;5.40;;;;;;;14.72;76.72;100819.78;5042397;28;20025;-66
2021/06/14 04:47:37;;;;;;;9.20;4.88;;;;;;;14.77;76.62;100815.34;5043540;28;20041;-67
2021/06/14 04:50:04;;;;;;;9.55;5.32;;;;;;;14.81;76.47;100806.56;5059183;28;20017;-67
2021/06/14 04:52:29;;;;;;;8.65;4.70;;;;;;;14.83;76.45;100807.41;5043631;28;20036;-68
2021/06/14 04:54:56;;;;;;;10.38;4.75;;;;;;;14.87;76.23;100793.38;5061845;28;20049;-67
2021/06/14 04:57:22;;;;;;;6.00;4.38;;;;;;;14.94;76.18;100794.13;5063484;28;20021;-67
2021/06/14 04:59:47;;;;;;;8.07;5.05;;;;;;;15.03;75.97;100798.28;5045583;28;20033;-70
2021/06/14 05:02:12;;;;;;;15.70;5.47;;;;;;;15.11;75.31;100788.53;5063726;28;20029;-68
2021/06/14 05:04:38;;;;;;;10.82;5.32;;;;;;;15.10;75.82;100765.88;5063440;28;20052;-67
2021/06/14 05:07:03;;;;;;;7.30;4.75;;;;;;;15.25;75.88;100771.69;5062023;28;20360;-69
2021/06/14 05:09:29;;;;;;;11.43;6.20;;;;;;;15.38;75.06;100763.56;5062091;28;20067;-68
2021/06/14 05:11:54;;;;;;;11.25;5.75;;;;;;;15.47;75.08;100765.97;5063303;28;20114;-67
2021/06/14 05:14:19;;;;;;;9.27;5.15;;;;;;;15.54;74.65;100758.84;5045149;28;20021;-68
2021/06/14 05:16:45;;;;;;;10.13;6.15;;;;;;;15.57;74.31;100762.25;5062144;28;20024;-69
2021/06/14 05:19:10;;;;;;;12.00;5.18;;;;;;;15.56;74.43;100757.88;5063181;28;20095;-67
2021/06/14 05:21:36;;;;;;;11.77;5.25;;;;;;;15.63;74.38;100760.34;5063219;28;20484;-67
2021/06/14 05:24:02;;;;;;;10.52;5.13;;;;;;;15.81;73.78;100765.16;5063392;28;20059;-68
2021/06/14 05:26:28;;;;;;;9.48;5.55;;;;;;;15.94;73.26;100754.38;5063573;28;20025;-69
2021/06/14 05:28:53;;;;;;;7.30;4.97;;;;;;;16.02;73.13;100757.69;5063476;28;20075;-69
2021/06/14 05:31:18;;;;;;;7.47;5.25;;;;;;;16.08;72.58;100761.91;5063319;28;20458;-68
2021/06/14 05:33:44;;;;;;;8.57;4.20;;;;;;;16.03;72.47;100753.31;5063217;28;20119;-69
2021/06/14 05:36:09;;;;;;;6.80;4.63;;;;;;;15.95;73.00;100763.94;5063254;28;20076;-68
2021/06/14 05:38:35;;;;;;;8.25;4.22;;;;;;;15.91;73.23;100750.06;5063307;28;20131;-68
2021/06/14 05:41:00;;;;;;;9.32;4.72;;;;;;;15.82;73.25;100732.84;5045087;28;20021;-68
2021/06/14 05:43:26;;;;;;;11.57;4.75;;;;;;;15.82;73.41;100740.69;5045252;28;20025;-68
2021/06/14 05:45:51;;;;;;;11.70;4.70;;;;;;;15.78;73.61;100744.31;5046665;28;20241;-67
2021/06/14 05:48:16;;;;;;;7.97;5.00;;;;;;;15.74;73.60;100746.13;5067248;28;20017;-68
2021/06/14 05:50:42;;;;;;;11.13;5.50;;;;;;;15.76;73.79;100746.09;5067131;28;20033;-68
2021/06/14 05:53:08;;;;;;;11.68;4.97;;;;;;;15.80;73.70;100746.88;5066878;28;20040;-68
2021/06/14 05:55:34;;;;;;;10.30;5.05;;;;;;;15.85;73.57;100750.22;5066812;28;20028;-68
2021/06/14 05:58:00;;;;;;;8.80;5.30;;;;;;;15.87;73.68;100751.06;5067021;28;20048;-68
2021/06/14 06:00:25;;;;;;;9.60;5.82;;;;;;;16.08;73.61;100740.97;5066794;28;20477;-68
2021/06/14 06:02:51;;;;;;;9.50;5.93;;;;;;;16.20;72.79;100735.38;5066962;28;20017;-68
2021/06/14 06:05:16;;;;;;;9.48;5.13;;;;;;;16.23;73.20;100726.56;5066712;28;20036;-68
2021/06/14 06:07:42;;;;;;;12.88;5.65;;;;;;;16.43;73.10;100728.69;5065460;28;20048;-68
2021/06/14 06:10:11;;;;;;;15.30;6.20;;;;;;;16.57;72.73;100722.16;5066676;28;20071;-68
2021/06/14 06:12:38;;;;;;;14.88;6.07;;;;;;;16.69;72.08;100715.72;5066659;28;20028;-68
2021/06/14 06:15:06;;;;;;;12.07;5.90;;;;;;;16.75;72.09;100704.19;5066449;28;20033;-69
2021/06/14 06:17:31;;;;;;;13.18;6.47;;;;;;;16.79;71.34;100704.06;5065248;28;20025;-68
2021/06/14 06:19:57;;;;;;;10.98;5.40;;;;;;;16.70;71.91;100699.97;5066720;28;20085;-69
2021/06/14 06:22:23;;;;;;;14.07;6.00;;;;;;;16.75;71.90;100702.44;5066478;28;20025;-68
2021/06/14 06:24:48;;;;;;;14.95;6.85;;;;;;;16.87;71.53;100713.47;5066525;28;20052;-68
2021/06/14 06:27:13;;;;;;;18.52;6.25;;;;;;;16.88;71.65;100721.28;5066251;28;20449;-68
2021/06/14 06:29:39;;;;;;;11.93;6.00;;;;;;;16.96;71.32;100710.56;5066316;28;20123;-68
2021/06/14 06:32:05;;;;;;;15.98;6.47;;;;;;;16.92;70.92;100714.16;5066101;28;20025;-68
2021/06/14 06:34:30;;;;;;;12.63;6.32;;;;;;;16.92;71.09;100715.03;5065976;28;20025;-68
2021/06/14 06:36:56;;;;;;;17.00;5.53;;;;;;;16.92;70.98;100724.66;5066008;28;20101;-68
2021/06/14 06:39:21;;;;;;;10.07;6.38;;;;;;;16.87;70.73;100708.22;5065883;28;20051;-69
2021/06/14 06:41:47;;;;;;;11.80;6.00;;;;;;;16.80;71.57;100711.03;5066119;28;20078;-67
2021/06/14 06:44:12;;;;;;;16.33;6.20;;;;;;;16.89;71.22;100711.63;5066112;28;20028;-67
2021/06/14 06:46:38;;;;;;;20.13;5.95;;;;;;;16.92;71.05;100699.31;5064515;28;20021;-68
2021/06/14 06:49:04;;;;;;;16.05;6.50;;;;;;;16.96;70.89;100707.94;5065524;28;20427;-67
2021/06/14 06:51:29;;;;;;;15.57;6.47;;;;;;;16.98;70.75;100706.16;5065435;28;20044;-67
2021/06/14 06:54:13;;;;;;;14.40;6.03;;;;;;;16.92;70.87;100695.81;5047385;28;20049;-67
2021/06/14 06:56:43;;;;;;;10.20;5.65;;;;;;;16.98;70.95;100690.41;5065148;28;20021;-68
2021/06/14 06:59:10;;;;;;;13.23;5.20;;;;;;;17.00;70.84;100678.09;5064131;28;20481;-68
2021/06/14 07:01:36;;;;;;;10.23;4.82;;;;;;;17.20;70.91;100668.78;5065255;28;20047;-68
2021/06/14 07:04:01;;;;;;;11.43;4.95;;;;;;;17.44;69.79;100667.09;5065557;28;20437;-68
2021/06/14 07:06:27;;;;;;;9.77;4.50;;;;;;;17.69;69.30;100650.53;5065323;28;20042;-68
2021/06/14 07:08:57;;;;;;;10.45;4.20;;;;;;;17.97;68.16;100640.84;5063783;28;20024;-67
2021/06/14 07:11:25;;;;;;;9.40;3.80;;;;;;;17.98;66.96;100642.53;5065165;28;20025;-67
2021/06/14 07:13:51;;;;;;;14.05;4.63;;;;;;;18.03;66.94;100632.72;5065203;28;20036;-68
2021/06/14 07:16:17;;;;;;;11.63;4.45;;;;;;;18.06;66.58;100624.75;5065062;28;20021;-68
2021/06/14 07:18:42;;;;;;;5.57;3.25;;;;;;;18.24;66.40;100597.88;5047002;28;20047;-68
2021/06/14 07:21:08;;;;;;;10.52;4.07;;;;;;;18.57;65.20;100619.38;5065079;28;20028;-68
2021/06/14 07:23:33;;;;;;;9.43;3.75;;;;;;;18.91;64.19;100624.22;5064900;28;20029;-69
2021/06/14 07:25:58;;;;;;;9.55;3.63;;;;;;;19.26;63.80;100619.31;5064842;28;20029;-69
2021/06/14 07:28:24;;;;;;;9.73;3.65;;;;;;;19.61;62.27;100633.69;5063758;28;20079;-68
2021/06/14 07:30:49;;;;;;;8.40;3.28;;;;;;;19.69;61.06;100631.59;5063625;28;20037;-70
2021/06/14 07:33:14;;;;;;;9.02;3.80;;;;;;;19.51;60.52;100639.34;5064169;28;20086;-69
2021/06/14 07:35:40;;;;;;;9.50;3.28;;;;;;;19.27;60.71;100625.44;5046583;28;20085;-68
2021/06/14 07:38:06;;;;;;;8.73;3.22;;;;;;;19.08;61.63;100616.50;5064663;28;20029;-69
2021/06/14 07:40:32;;;;;;;6.13;3.13;;;;;;;18.99;61.61;100610.75;5064568;28;20029;-68
2021/06/14 07:42:58;;;;;;;13.20;3.55;;;;;;;18.85;61.88;100625.31;5063523;28;20395;-68
2021/06/14 07:45:25;;;;;;;8.70;3.05;;;;;;;18.58;62.41;100623.72;5046406;28;20041;-71
2021/06/14 07:47:51;;;;;;;8.40;3.55;;;;;;;18.40;63.10;100629.69;5046427;28;20040;-68
2021/06/14 07:50:17;;;;;;;11.50;4.10;;;;;;;18.21;63.28;100619.88;5064788;28;20077;-69
2021/06/14 07:52:43;;;;;;;9.25;3.70;;;;;;;17.94;64.43;100628.66;5046842;28;20244;-68
2021/06/14 07:55:10;;;;;;;9.55;4.35;;;;;;;17.76;65.08;100631.94;5064479;28;20021;-68
2021/06/14 07:57:35;;;;;;;8.23;4.32;;;;;;;17.58;66.00;100640.41;5064663;28;20048;-67
2021/06/14 08:00:01;;;;;;;10.98;4.57;;;;;;;17.37;66.67;100623.59;5063133;28;20021;-67
2021/06/14 08:02:26;;;;;;;10.23;3.95;;;;;;;17.29;67.07;100621.25;5064548;28;20102;-67
2021/06/14 08:04:51;;;;;;;11.07;4.28;;;;;;;17.28;67.53;100623.91;5064281;28;20028;-67
2021/06/14 08:07:17;;;;;;;12.13;4.30;;;;;;;17.21;67.75;100620.63;5064318;28;20112;-69
2021/06/14 08:09:44;;;;;;;8.05;4.13;;;;;;;17.17;68.07;100627.72;5063763;28;20017;-68
2021/06/14 08:12:09;;;;;;;10.10;4.55;;;;;;;17.04;68.46;100611.53;5064499;28;20013;-68
2021/06/14 08:14:35;;;;;;;8.93;3.60;;;;;;;17.00;68.68;100615.13;5064285;28;20029;-68
2021/06/14 08:17:02;;;;;;;10.98;4.63;;;;;;;17.01;68.64;100621.25;5064378;28;20431;-69
2021/06/14 08:22:11;;;;;;;9.73;3.83;;;;;;;17.02;68.53;100608.09;5064295;28;20016;-69
2021/06/14 08:27:21;;;;;;;7.82;3.60;;;;;;;17.14;68.49;100606.00;5064282;28;20028;-69
2021/06/14 08:29:46;;;;;;;8.70;3.30;;;;;;;17.23;68.41;100610.94;5063864;28;20033;-69
2021/06/14 08:32:11;;;;;;;12.70;3.88;;;;;;;17.34;68.26;100611.47;5064016;28;20024;-69
2021/06/14 08:34:37;;;;;;;8.95;3.05;;;;;;;17.42;67.92;100599.81;5045837;28;20028;-69
2021/06/14 08:37:02;;;;;;;6.55;3.58;;;;;;;17.36;67.27;100600.03;5063893;28;20681;-69
2021/06/14 08:39:28;;;;;;;8.13;3.03;;;;;;;17.40;67.10;100606.88;5064141;28;20051;-69
2021/06/14 08:41:54;;;;;;;8.98;3.78;;;;;;;17.33;67.55;100612.34;5063782;28;20029;-70
2021/06/14 08:44:20;;;;;;;7.25;3.75;;;;;;;17.29;67.42;100612.50;5063712;28;20555;-70
2021/06/14 08:46:49;;;;;;;10.85;4.32;;;;;;;17.24;67.40;100594.28;5062339;28;20067;-69
2021/06/14 08:49:15;;;;;;;11.15;3.38;;;;;;;17.14;67.45;100601.59;5063936;28;20072;-69
2021/06/14 08:51:41;;;;;;;6.43;3.20;;;;;;;17.16;67.65;100584.06;5064037;28;20025;-70
2021/06/14 08:54:07;;;;;;;4.25;2.90;;;;;;;17.41;67.31;100609.47;5063169;28;20143;-70
2021/06/14 08:56:33;;;;;;;13.45;5.65;;;;;;;17.52;66.89;100606.50;5045307;28;20032;-68
2021/06/14 08:58:58;;;;;;;8.90;3.72;;;;;;;17.44;66.86;100603.25;5063393;28;20059;-68
2021/06/14 09:01:25;;;;;;;9.88;3.63;;;;;;;17.31;67.25;100597.56;5045313;28;20097;-69
2021/06/14 09:03:50;;;;;;;7.57;3.65;;;;;;;17.36;67.46;100594.78;5063417;28;20428;-70
2021/06/14 09:06:16;;;;;;;10.30;3.28;;;;;;;17.30;67.36;100586.22;5045592;28;20067;-70
2021/06/14 09:08:53;;;;;;;5.53;3.22;;;;;;;17.24;67.64;100591.66;5063590;28;20031;-68
2021/06/14 09:11:19;;;;;;;9.43;3.38;;;;;;;17.12;67.75;100590.31;5063305;28;20036;-69
2021/06/14 09:13:44;;;;;;;7.35;3.67;;;;;;;17.11;67.95;100595.63;5063148;28;20021;-69
2021/06/14 09:16:13;;;;;;;9.43;3.95;;;;;;;17.07;68.05;100593.06;5063292;28;20032;-69
2021/06/14 09:18:40;;;;;;;9.20;3.95;;;;;;;16.94;68.24;100581.25;5063319;28;20028;-70
2021/06/14 09:21:18;;;;;;;8.50;3.90;;;;;;;16.81;68.92;100563.28;5067211;28;20082;-68
2021/06/14 09:23:47;;;;;;;8.70;4.07;;;;;;;16.77;68.90;100572.19;5049370;28;20029;-68
2021/06/14 09:26:48;;;;;;;6.75;3.63;;;;;;;16.69;69.26;100566.31;5067376;28;20025;-68
2021/06/14 09:29:20;;;;;;;10.77;3.20;;;;;;;16.68;69.10;100568.06;5005027;28;20030;-68
2021/06/14 09:31:50;;;;;;;4.57;2.45;;;;;;;16.67;69.33;100568.13;4988497;28;20086;-68
2021/06/14 09:34:17;;;;;;;11.50;4.50;;;;;;;16.67;69.44;100562.88;5005257;28;20036;-68
2021/06/14 09:36:56;;;;;;;7.85;3.25;;;;;;;16.69;69.43;100548.81;4988633;28;20038;-68
2021/06/14 09:39:21;;;;;;;11.57;3.38;;;;;;;16.70;69.23;100561.03;5004986;28;20030;-68
2021/06/14 09:41:53;;;;;;;10.68;4.35;;;;;;;16.71;69.07;100557.47;5004894;28;20513;-69
2021/06/14 09:44:32;;;;;;;7.50;3.30;;;;;;;16.71;69.21;100554.84;5004991;28;20042;-68
2021/06/14 09:47:08;;;;;;;5.25;2.42;;;;;;;16.79;68.68;100561.63;5004734;28;20058;-69
2021/06/14 09:49:35;;;;;;;5.32;2.75;;;;;;;16.73;68.56;100520.72;5005029;28;20062;-69
2021/06/14 09:52:02;;;;;;;7.70;3.42;;;;;;;16.81;68.41;100526.59;5005019;28;20038;-69
2021/06/14 09:54:29;;;;;;;8.32;2.90;;;;;;;16.89;68.30;100538.56;4988350;28;20511;-69
2021/06/14 09:56:57;;;;;;;5.97;2.70;;;;;;;16.87;68.06;100546.50;5004412;28;20035;-68
2021/06/14 09:59:38;;;;;;;7.47;3.10;;;;;;;16.84;68.16;100539.59;4988149;28;20026;-68
2021/06/14 10:02:19;;;;;;;8.07;3.25;;;;;;;16.83;67.72;100516.06;5006420;28;20054;-68
2021/06/14 10:04:46;;;;;;;8.02;3.63;;;;;;;16.73;68.13;100518.13;5066721;28;20051;-69
2021/06/14 10:07:19;;;;;;;7.72;2.97;;;;;;;16.88;67.62;100529.00;5065337;28;20416;-70
2021/06/14 10:09:48;;;;;;;7.88;3.25;;;;;;;16.82;68.24;100516.97;5066688;28;20035;-68
2021/06/14 10:12:28;;;;;;;4.28;3.10;;;;;;;16.90;68.08;100503.59;5066387;28;20047;-69
2021/06/14 10:14:57;;;;;;;6.90;3.30;;;;;;;16.89;68.14;100517.59;5066400;28;20081;-69
2021/06/14 10:17:40;;;;;;;10.85;3.15;;;;;;;16.81;68.37;100508.25;5066607;28;20039;-69
2021/06/14 10:20:10;;;;;;;5.07;2.85;;;;;;;16.95;67.93;100520.00;5048624;28;20087;-67
2021/06/14 10:22:36;;;;;;;9.25;3.90;;;;;;;16.90;68.18;100520.16;5066455;28;20021;-68
2021/06/14 10:25:03;;;;;;;6.88;3.55;;;;;;;16.90;68.34;100514.94;5066461;28;20028;-67
2021/06/14 10:27:28;;;;;;;7.78;3.15;;;;;;;16.94;68.65;100515.69;5066430;28;20055;-68
2021/06/14 10:29:54;;;;;;;7.25;3.63;;;;;;;16.97;68.68;100507.72;5066329;28;20097;-68
2021/06/14 10:32:20;;;;;;;12.88;3.70;;;;;;;17.01;68.68;100492.75;5065769;28;20040;-70
2021/06/14 10:34:48;;;;;;;8.98;3.85;;;;;;;17.02;68.61;100515.44;5066144;28;20035;-68
2021/06/14 10:37:15;;;;;;;6.03;3.50;;;;;;;16.90;68.86;100500.97;5066321;28;20021;-68
2021/06/14 10:39:47;;;;;;;8.52;3.25;;;;;;;16.98;68.39;100506.84;5066180;28;20036;-69
2021/06/14 10:42:13;;;;;;;9.65;3.65;;;;;;;16.89;68.64;100494.88;5066068;28;20032;-69
2021/06/14 10:44:38;;;;;;;10.52;3.92;;;;;;;16.90;68.99;100488.72;5065748;28;20077;-68
2021/06/14 10:47:08;;;;;;;6.32;3.35;;;;;;;16.91;69.03;100500.94;5065841;28;20029;-68
2021/06/14 10:49:34;;;;;;;6.47;3.13;;;;;;;16.91;69.42;100487.81;5065653;28;20029;-68
2021/06/14 10:52:02;;;;;;;7.95;4.22;;;;;;;16.96;68.80;100506.03;5065758;28;20076;-67
2021/06/14 10:54:39;;;;;;;8.88;3.67;;;;;;;16.87;69.27;100504.53;5047389;28;20106;-68
2021/06/14 10:57:12;;;;;;;9.13;3.45;;;;;;;16.86;69.09;100481.88;5065794;28;20079;-68
2021/06/14 10:59:43;;;;;;;5.53;3.17;;;;;;;16.92;69.10;100486.03;5047504;28;20040;-68
2021/06/14 11:02:10;;;;;;;9.30;3.67;;;;;;;16.97;68.98;100468.38;5065651;28;20025;-68
2021/06/14 11:04:36;;;;;;;7.00;3.58;;;;;;;17.08;68.80;100489.88;5047370;28;20021;-69
2021/06/14 11:07:02;;;;;;;5.82;3.03;;;;;;;17.03;68.43;100470.78;5065665;28;20056;-69
2021/06/14 11:09:43;;;;;;;7.82;3.45;;;;;;;17.11;68.71;100464.47;5065700;28;20111;-70
2021/06/14 11:12:10;;;;;;;8.07;2.97;;;;;;;17.22;68.20;100464.97;5065517;28;20029;-69
2021/06/14 11:14:38;;;;;;;9.90;4.20;;;;;;;17.46;67.87;100460.56;5047516;28;20021;-70
2021/06/14 11:17:17;;;;;;;6.78;3.30;;;;;;;17.53;67.51;100455.09;5064289;28;20051;-69
2021/06/14 11:19:45;;;;;;;11.82;3.42;;;;;;;17.50;67.59;100448.19;5047476;28;20055;-68
2021/06/14 11:22:10;;;;;;;7.15;3.35;;;;;;;17.64;67.56;100449.44;5065382;28;20476;-68
2021/06/14 11:24:40;;;;;;;10.75;2.97;;;;;;;17.82;67.28;100438.25;5065287;28;20032;-68
2021/06/14 11:27:10;;;;;;;8.65;2.28;;;;;;;18.08;66.13;100433.75;5063376;28;20107;-68